Time;durP1;ratioP1;P1;durP2;ratioP2;P2;SDS_P1;SDS_P2;PMS_P1;PMS_P2;Temp;Humidity;BMP_temperature;BMP_pressure;BME280_temperature;BME280_humidity;BME280_pressure;Samples;Min_cycle;Max_cycle;Signal;HPM_P1;HPM_P2
2023/07/22 00:03:17;;;;;;;3.60;2.20;;;25.80;54.60;;;;;;221642;1264;22568;-42
2023/07/22 00:08:23;;;;;;;2.80;2.10;;;25.80;54.60;;;;;;221774;1263;22530;-42
2023/07/22 00:13:27;;;;;;;2.70;1.80;;;25.80;54.30;;;;;;221909;1256;22677;-42
2023/07/22 00:18:32;;;;;;;1.70;1.60;;;25.70;54.30;;;;;;221902;1265;24311;-42
2023/07/22 00:23:38;;;;;;;1.90;1.80;;;25.70;54.10;;;;;;222032;1263;22594;-44
2023/07/22 00:28:43;;;;;;;1.90;1.80;;;25.70;54.00;;;;;;221858;1270;25590;-41
2023/07/22 00:33:47;;;;;;;1.80;1.70;;;25.70;54.00;;;;;;221932;1269;25355;-41
2023/07/22 00:38:54;;;;;;;2.00;1.80;;;25.70;53.90;;;;;;221880;1269;24837;-43
2023/07/22 00:43:59;;;;;;;1.60;1.50;;;25.70;53.90;;;;;;221910;1263;22613;-43
2023/07/22 00:49:06;;;;;;;4.60;2.10;;;25.70;53.90;;;;;;222010;1269;24318;-41
2023/07/22 00:54:10;;;;;;;1.80;1.70;;;25.70;53.80;;;;;;221926;1268;22522;-42
2023/07/22 00:59:17;;;;;;;2.90;1.80;;;25.70;53.80;;;;;;221900;1263;22520;-43
2023/07/22 01:04:23;;;;;;;1.60;1.50;;;25.70;54.10;;;;;;221864;1266;22675;-43
2023/07/22 01:09:37;;;;;;;1.60;1.50;;;25.60;53.70;;;;;;222017;1256;24367;-42
2023/07/22 01:14:42;;;;;;;2.60;1.60;;;25.60;53.70;;;;;;221981;1263;23150;-43
2023/07/22 01:19:47;;;;;;;1.90;1.50;;;25.60;53.70;;;;;;221798;1262;24173;-41
2023/07/22 01:24:52;;;;;;;1.80;1.60;;;25.60;53.70;;;;;;221916;1267;22637;-43
2023/07/22 01:29:56;;;;;;;2.10;1.60;;;25.60;53.70;;;;;;221804;1266;25619;-42
2023/07/22 01:35:00;;;;;;;2.90;1.40;;;25.60;53.60;;;;;;221731;1270;22520;-42
2023/07/22 01:40:14;;;;;;;1.70;1.60;;;25.50;53.50;;;;;;221763;1257;22637;-42
2023/07/22 01:45:18;;;;;;;1.70;1.40;;;25.60;53.50;;;;;;221682;1262;22511;-42
2023/07/22 01:50:22;;;;;;;2.00;1.60;;;25.50;53.50;;;;;;221936;1266;24324;-43
2023/07/22 01:55:27;;;;;;;2.50;1.60;;;25.50;53.40;;;;;;221887;1270;22571;-43
2023/07/22 02:00:31;;;;;;;1.70;1.60;;;25.60;53.50;;;;;;221757;1270;22515;-42
2023/07/22 02:05:35;;;;;;;1.40;1.30;;;25.50;53.30;;;;;;221888;1262;23996;-43
2023/07/22 02:10:41;;;;;;;1.80;1.60;;;25.50;53.30;;;;;;221830;1269;22726;-43
2023/07/22 02:15:46;;;;;;;1.80;1.60;;;25.50;53.20;;;;;;221666;1262;227081;-45
2023/07/22 02:20:50;;;;;;;1.90;1.40;;;25.50;53.20;;;;;;221797;1259;24255;-45
2023/07/22 02:25:54;;;;;;;1.70;1.50;;;25.50;53.20;;;;;;221802;1267;22528;-41
2023/07/22 02:31:02;;;;;;;4.80;1.70;;;25.50;53.20;;;;;;222007;1266;22558;-45
2023/07/22 02:36:06;;;;;;;1.10;1.10;;;25.40;53.10;;;;;;222139;1258;25307;-44
2023/07/22 02:41:10;;;;;;;1.40;1.30;;;25.50;53.20;;;;;;221722;1256;22508;-44
2023/07/22 02:46:15;;;;;;;4.00;1.60;;;25.40;53.00;;;;;;221812;1266;22508;-43
2023/07/22 02:51:19;;;;;;;1.60;1.50;;;25.40;53.00;;;;;;221889;1270;22682;-42
2023/07/22 02:56:23;;;;;;;1.90;1.60;;;25.40;53.10;;;;;;221751;1270;24250;-42
2023/07/22 03:01:29;;;;;;;1.40;1.30;;;25.40;53.20;;;;;;222135;1260;23743;-41
2023/07/22 03:06:33;;;;;;;1.30;1.20;;;25.40;53.20;;;;;;225169;1269;22644;-42
2023/07/22 03:11:37;;;;;;;2.40;1.50;;;25.40;52.90;;;;;;223491;1263;22523;-42
2023/07/22 03:16:41;;;;;;;1.70;1.60;;;25.50;52.80;;;;;;221907;1265;22531;-43
2023/07/22 03:21:46;;;;;;;1.80;1.70;;;25.40;53.60;;;;;;222005;1270;22546;-42
2023/07/22 03:26:50;;;;;;;2.60;1.70;;;25.40;53.20;;;;;;221769;1264;22522;-43
2023/07/22 03:31:57;;;;;;;1.60;1.50;;;25.40;53.30;;;;;;221999;1263;22600;-43
2023/07/22 03:37:01;;;;;;;1.70;1.60;;;25.30;53.30;;;;;;222036;1257;22507;-41
2023/07/22 03:42:06;;;;;;;2.60;1.80;;;25.30;53.60;;;;;;222124;1256;22511;-44
2023/07/22 03:47:10;;;;;;;1.80;1.70;;;25.30;53.30;;;;;;222079;1256;24276;-45
2023/07/22 03:52:18;;;;;;;1.40;1.30;;;25.30;53.30;;;;;;221871;1270;22520;-44
2023/07/22 03:57:27;;;;;;;2.00;1.60;;;25.30;53.40;;;;;;221844;1264;22638;-42
2023/07/22 04:02:33;;;;;;;2.10;1.90;;;25.30;53.70;;;;;;221930;1259;22511;-42
2023/07/22 04:07:37;;;;;;;2.10;1.80;;;25.30;53.90;;;;;;221980;1265;25266;-42
2023/07/22 04:12:41;;;;;;;2.40;1.60;;;25.30;53.60;;;;;;221816;1259;22551;-43
2023/07/22 04:17:46;;;;;;;1.40;1.30;;;25.30;53.60;;;;;;221887;1269;24196;-44
2023/07/22 04:22:51;;;;;;;2.20;2.00;;;25.30;53.60;;;;;;221851;1263;25317;-42
2023/07/22 04:27:56;;;;;;;3.20;2.10;;;25.30;53.70;;;;;;222275;1266;25265;-40
2023/07/22 04:33:02;;;;;;;1.90;1.60;;;25.30;53.60;;;;;;221945;1256;26671;-42
2023/07/22 04:38:07;;;;;;;1.90;1.70;;;25.30;53.50;;;;;;222131;1257;23887;-41
2023/07/22 04:43:12;;;;;;;2.30;1.90;;;25.20;53.70;;;;;;221875;1264;24285;-43
2023/07/22 04:48:18;;;;;;;3.10;1.50;;;25.30;53.80;;;;;;221827;1260;22533;-42
2023/07/22 04:53:22;;;;;;;2.20;2.00;;;25.30;53.50;;;;;;221947;1256;25425;-42
2023/07/22 04:58:26;;;;;;;2.80;1.70;;;25.30;53.80;;;;;;221933;1259;22517;-43
2023/07/22 05:03:30;;;;;;;1.60;1.50;;;25.30;53.40;;;;;;221789;1256;25211;-43
2023/07/22 05:08:35;;;;;;;1.70;1.60;;;25.30;53.50;;;;;;222056;1259;22601;-42
2023/07/22 05:13:39;;;;;;;1.80;1.50;;;25.30;53.80;;;;;;221965;1267;24275;-43
2023/07/22 05:18:43;;;;;;;1.80;1.70;;;25.30;53.40;;;;;;221724;1263;24231;-43
2023/07/22 05:23:47;;;;;;;2.40;1.70;;;25.20;53.70;;;;;;221983;1269;25346;-44
2023/07/22 05:28:51;;;;;;;1.90;1.50;;;25.30;53.70;;;;;;221758;1270;22639;-40
2023/07/22 05:33:55;;;;;;;2.20;1.70;;;25.20;53.80;;;;;;221782;1267;22595;-42
2023/07/22 05:38:59;;;;;;;2.00;1.80;;;25.20;53.80;;;;;;221808;1263;25424;-44
2023/07/22 05:44:04;;;;;;;1.90;1.80;;;25.20;53.70;;;;;;221744;1263;23903;-44
2023/07/22 05:49:10;;;;;;;3.40;1.90;;;25.20;53.70;;;;;;221841;1256;22508;-42
2023/07/22 05:54:14;;;;;;;2.10;1.70;;;25.20;53.60;;;;;;222176;1262;22635;-42
2023/07/22 05:59:19;;;;;;;1.70;1.50;;;25.20;53.60;;;;;;221964;1257;22508;-42
2023/07/22 06:04:25;;;;;;;3.00;1.70;;;25.20;53.50;;;;;;221887;1255;24193;-44
2023/07/22 06:09:29;;;;;;;2.10;1.90;;;25.20;53.40;;;;;;222030;1263;24361;-42
2023/07/22 06:14:33;;;;;;;3.00;1.80;;;25.20;53.30;;;;;;222053;1269;22655;-44
2023/07/22 06:19:38;;;;;;;2.90;1.70;;;25.20;53.20;;;;;;220435;1268;25320;-43
2023/07/22 06:24:42;;;;;;;3.10;1.90;;;25.20;53.40;;;;;;220687;1274;22542;-42
2023/07/22 06:29:46;;;;;;;2.00;1.80;;;25.20;53.30;;;;;;220600;1277;22542;-42
2023/07/22 06:34:50;;;;;;;2.40;1.60;;;25.20;53.60;;;;;;220758;1265;25281;-43
2023/07/22 06:39:55;;;;;;;2.00;1.60;;;25.20;53.20;;;;;;221816;1257;25322;-45
2023/07/22 06:44:59;;;;;;;3.00;1.90;;;25.20;53.10;;;;;;221893;1270;22563;-43
2023/07/22 06:50:04;;;;;;;1.90;1.50;;;25.20;53.00;;;;;;221687;1263;24197;-42
2023/07/22 06:55:08;;;;;;;1.80;1.70;;;25.20;53.00;;;;;;221898;1269;22514;-44
2023/07/22 07:00:15;;;;;;;2.00;1.60;;;25.20;53.40;;;;;;221942;1263;22812;-45
2023/07/22 07:05:21;;;;;;;2.10;1.80;;;25.20;52.90;;;;;;221884;1269;24250;-42
2023/07/22 07:10:26;;;;;;;2.30;1.70;;;25.20;52.80;;;;;;221868;1263;22521;-42
2023/07/22 07:15:30;;;;;;;2.00;1.80;;;25.30;52.90;;;;;;222021;1269;25080;-41
2023/07/22 07:20:34;;;;;;;2.30;1.80;;;25.20;53.00;;;;;;221738;1257;22508;-42
2023/07/22 07:25:39;;;;;;;1.70;1.60;;;25.20;52.60;;;;;;221883;1270;24174;-45
2023/07/22 07:30:44;;;;;;;2.10;1.60;;;25.20;52.40;;;;;;221653;1258;22588;-42
2023/07/22 07:35:48;;;;;;;4.10;1.80;;;25.20;52.30;;;;;;221752;1257;24271;-42
2023/07/22 07:40:55;;;;;;;2.50;1.30;;;25.20;52.10;;;;;;221922;1260;24068;-41
2023/07/22 07:46:14;;;;;;;6.40;1.50;;;25.20;52.10;;;;;;222079;1264;25476;-42
2023/07/22 07:51:20;;;;;;;1.80;1.50;;;25.20;51.90;;;;;;221963;1263;22512;-44
2023/07/22 07:56:25;;;;;;;3.50;1.70;;;25.30;51.80;;;;;;222078;1263;25506;-43
2023/07/22 08:01:30;;;;;;;1.50;1.20;;;25.30;52.00;;;;;;222037;1256;24356;-42
2023/07/22 08:06:34;;;;;;;2.80;1.10;;;25.20;52.00;;;;;;221993;1270;23639;-41
2023/07/22 08:11:38;;;;;;;3.60;1.40;;;25.20;51.80;;;;;;221939;1256;22534;-43
2023/07/22 08:16:43;;;;;;;3.10;1.40;;;25.30;52.20;;;;;;221980;1270;22521;-43
2023/07/22 08:21:47;;;;;;;3.70;1.20;;;25.30;51.30;;;;;;221777;1270;25609;-42
2023/07/22 08:26:51;;;;;;;1.50;1.40;;;25.20;51.40;;;;;;222310;1256;22511;-43
2023/07/22 08:31:55;;;;;;;1.20;1.20;;;25.20;51.40;;;;;;221811;1257;22517;-41
2023/07/22 08:37:00;;;;;;;1.40;1.30;;;25.30;51.70;;;;;;222468;1265;22503;-46
2023/07/22 08:42:07;;;;;;;2.00;1.20;;;25.30;51.80;;;;;;222280;1257;26513;-43
2023/07/22 08:47:17;;;;;;;4.00;1.30;;;25.30;51.40;;;;;;222250;1268;22588;-43
2023/07/22 08:52:23;;;;;;;3.40;1.30;;;25.30;51.30;;;;;;222265;1259;22889;-41
2023/07/22 08:57:30;;;;;;;1.20;1.10;;;25.30;51.60;;;;;;221928;1250;24216;-42
2023/07/22 09:02:35;;;;;;;1.10;0.90;;;25.30;51.10;;;;;;221757;1271;22561;-42
2023/07/22 09:07:40;;;;;;;1.50;1.30;;;25.30;51.30;;;;;;221936;1270;22639;-42
2023/07/22 09:12:48;;;;;;;2.10;1.20;;;25.30;50.80;;;;;;222115;1257;22526;-43
2023/07/22 09:17:53;;;;;;;1.20;1.10;;;25.40;50.80;;;;;;221973;1267;25936;-43
2023/07/22 09:22:58;;;;;;;3.10;1.30;;;25.40;50.80;;;;;;222033;1271;22522;-43
2023/07/22 09:28:16;;;;;;;1.20;1.10;;;25.40;50.60;;;;;;221783;1271;22513;-42
2023/07/22 09:33:22;;;;;;;1.20;1.10;;;25.40;50.40;;;;;;221953;1256;24194;-42
2023/07/22 09:38:28;;;;;;;1.20;1.10;;;25.40;50.30;;;;;;221820;1264;22517;-43
2023/07/22 09:43:38;;;;;;;2.40;1.30;;;25.40;50.50;;;;;;221878;1266;25274;-43
2023/07/22 09:48:44;;;;;;;2.00;1.30;;;25.40;50.10;;;;;;222056;1267;22556;-43
2023/07/22 09:54:00;;;;;;;1.20;1.20;;;25.50;49.40;;;;;;221874;1266;24184;-44
2023/07/22 09:59:07;;;;;;;3.70;1.90;;;25.40;49.50;;;;;;221938;1258;22623;-44
2023/07/22 10:04:14;;;;;;;1.70;1.60;;;25.50;50.00;;;;;;221274;1259;24330;-43
2023/07/22 10:09:22;;;;;;;1.50;1.40;;;25.60;49.60;;;;;;221340;1266;22624;-42
2023/07/22 10:14:27;;;;;;;1.60;1.50;;;25.50;49.30;;;;;;221160;1272;24253;-42
2023/07/22 10:19:35;;;;;;;1.50;1.40;;;25.60;49.30;;;;;;221200;1272;22593;-41
2023/07/22 10:24:41;;;;;;;1.80;1.70;;;25.60;48.90;;;;;;221289;1274;25303;-42
2023/07/22 10:29:46;;;;;;;2.20;1.60;;;25.60;49.00;;;;;;221228;1259;25797;-42
2023/07/22 10:34:49;;;;;;;1.80;1.70;;;25.60;49.30;;;;;;221377;1272;25411;-42
2023/07/22 10:40:20;;;;;;;3.60;1.60;;;25.60;49.00;;;;;;221557;1270;22599;-45
2023/07/22 10:45:39;;;;;;;3.00;2.10;;;25.60;49.00;;;;;;222307;1263;22577;-42
2023/07/22 10:50:52;;;;;;;3.10;1.90;;;25.70;49.40;;;;;;222293;1266;25465;-45
2023/07/22 10:56:19;;;;;;;2.00;1.60;;;25.60;48.50;;;;;;221939;1269;22597;-42
2023/07/22 11:01:30;;;;;;;1.60;1.50;;;25.70;49.20;;;;;;222130;1248;24305;-44
2023/07/22 11:06:35;;;;;;;2.30;1.90;;;25.70;48.60;;;;;;222354;1269;26616;-43
2023/07/22 11:11:44;;;;;;;2.10;1.80;;;25.70;48.10;;;;;;222135;1256;22627;-42
2023/07/22 11:16:49;;;;;;;2.80;2.00;;;25.60;48.00;;;;;;221855;1270;22595;-43
2023/07/22 11:21:54;;;;;;;1.80;1.60;;;25.60;47.70;;;;;;221888;1259;22616;-42
2023/07/22 11:26:58;;;;;;;2.10;1.90;;;25.60;47.40;;;;;;221748;1270;26577;-45
2023/07/22 11:32:04;;;;;;;2.00;1.90;;;25.70;47.50;;;;;;221881;1260;24254;-42
2023/07/22 11:37:09;;;;;;;2.80;1.70;;;25.70;47.10;;;;;;221859;1258;22522;-44
2023/07/22 11:42:13;;;;;;;1.50;1.40;;;25.70;46.90;;;;;;221724;1264;22588;-43
2023/07/22 11:47:17;;;;;;;3.80;1.80;;;25.70;46.70;;;;;;221935;1264;22527;-42
2023/07/22 11:52:22;;;;;;;2.30;2.10;;;25.60;46.80;;;;;;221956;1270;22516;-43
2023/07/22 11:57:26;;;;;;;2.50;2.30;;;25.60;46.60;;;;;;221680;1269;22722;-42
2023/07/22 12:02:36;;;;;;;2.00;1.90;;;25.70;46.50;;;;;;221863;1264;22759;-43
2023/07/22 12:07:41;;;;;;;1.80;1.70;;;25.70;46.50;;;;;;222149;1269;22514;-43
2023/07/22 12:12:47;;;;;;;1.80;1.70;;;25.70;46.00;;;;;;222062;1269;22540;-42
2023/07/22 12:18:04;;;;;;;2.20;2.00;;;25.80;46.90;;;;;;221920;1267;24221;-44
2023/07/22 12:23:09;;;;;;;1.70;1.60;;;25.80;46.40;;;;;;221938;1270;22504;-45
2023/07/22 12:28:13;;;;;;;2.30;1.70;;;25.80;46.50;;;;;;221951;1263;24266;-43
2023/07/22 12:33:17;;;;;;;3.30;1.60;;;25.80;46.50;;;;;;221952;1263;22598;-44
2023/07/22 12:38:21;;;;;;;2.00;1.90;;;25.80;46.90;;;;;;221618;1264;22513;-43
2023/07/22 12:43:26;;;;;;;2.10;1.90;;;25.70;46.00;;;;;;221743;1261;22976;-43
2023/07/22 12:48:30;;;;;;;3.50;2.00;;;25.70;45.20;;;;;;221784;1268;24174;-44
2023/07/22 12:53:34;;;;;;;2.30;2.00;;;25.60;44.60;;;;;;221994;1265;22624;-42
2023/07/22 12:58:39;;;;;;;2.50;2.30;;;25.70;44.50;;;;;;221886;1270;22781;-42
2023/07/22 13:03:44;;;;;;;3.90;2.40;;;25.70;44.30;;;;;;221866;1269;22527;-44
2023/07/22 13:08:48;;;;;;;4.10;2.20;;;25.80;44.00;;;;;;222121;1270;23387;-42
2023/07/22 13:13:53;;;;;;;2.60;2.20;;;25.70;43.10;;;;;;221997;1265;22524;-42
2023/07/22 13:19:00;;;;;;;4.30;2.20;;;25.80;43.80;;;;;;221781;1269;22528;-42
2023/07/22 13:24:05;;;;;;;2.20;1.70;;;25.80;44.10;;;;;;221716;1264;22517;-43
2023/07/22 13:29:09;;;;;;;4.30;1.80;;;25.80;43.90;;;;;;222171;1257;22530;-43
2023/07/22 13:34:13;;;;;;;3.90;1.80;;;25.70;43.30;;;;;;222007;1270;22588;-42
2023/07/22 13:39:17;;;;;;;2.30;2.10;;;25.80;43.70;;;;;;221776;1256;22641;-42
2023/07/22 13:44:22;;;;;;;2.30;2.10;;;25.80;43.50;;;;;;222328;1257;23911;-42
2023/07/22 13:49:26;;;;;;;2.70;2.30;;;25.80;43.20;;;;;;221975;1270;24254;-42
2023/07/22 13:54:30;;;;;;;2.90;1.90;;;25.80;43.10;;;;;;221989;1267;22514;-42
2023/07/22 13:59:34;;;;;;;1.90;1.80;;;25.80;43.20;;;;;;221830;1268;22504;-42
2023/07/22 14:04:39;;;;;;;5.00;1.90;;;25.80;42.60;;;;;;221581;1271;24266;-45
2023/07/22 14:09:44;;;;;;;2.10;1.90;;;25.70;42.20;;;;;;221735;1270;26504;-43
2023/07/22 14:14:48;;;;;;;2.60;2.10;;;25.70;42.40;;;;;;221792;1270;242924;-43
2023/07/22 14:19:53;;;;;;;2.10;1.90;;;25.70;41.60;;;;;;221767;1264;25242;-44
2023/07/22 14:24:58;;;;;;;3.50;2.10;;;25.70;41.50;;;;;;221864;1269;22627;-45
2023/07/22 14:30:05;;;;;;;2.20;2.00;;;25.80;41.90;;;;;;221689;1254;24183;-42
2023/07/22 14:35:10;;;;;;;3.30;2.10;;;25.80;41.70;;;;;;222305;1269;23771;-44
2023/07/22 14:40:15;;;;;;;2.90;2.50;;;25.70;41.80;;;;;;221894;1260;22605;-44
2023/07/22 14:45:19;;;;;;;2.20;2.10;;;25.70;41.50;;;;;;221815;1260;25390;-42
2023/07/22 14:50:24;;;;;;;2.30;2.10;;;25.70;41.30;;;;;;221864;1270;22626;-43
2023/07/22 14:55:29;;;;;;;4.60;2.80;;;25.70;41.30;;;;;;222066;1267;22643;-43
2023/07/22 15:00:33;;;;;;;2.10;2.00;;;25.70;41.00;;;;;;222043;1264;24458;-44
2023/07/22 15:05:38;;;;;;;3.00;2.50;;;25.70;41.30;;;;;;221886;1264;22468;-45
2023/07/22 15:10:42;;;;;;;3.90;2.50;;;25.70;41.80;;;;;;221870;1269;22515;-43
2023/07/22 15:15:46;;;;;;;3.10;2.70;;;25.70;41.30;;;;;;221967;1264;22530;-42
2023/07/22 15:20:52;;;;;;;3.90;2.70;;;25.70;40.80;;;;;;221942;1267;22518;-43
2023/07/22 15:25:56;;;;;;;3.90;2.90;;;25.70;41.20;;;;;;222083;1267;22509;-42
2023/07/22 15:31:00;;;;;;;4.50;3.00;;;25.80;41.30;;;;;;221861;1254;22515;-46
2023/07/22 15:36:05;;;;;;;3.50;2.70;;;25.80;40.80;;;;;;221928;1269;24210;-42
2023/07/22 15:41:09;;;;;;;4.20;3.00;;;25.70;40.90;;;;;;221911;1260;23110;-44
2023/07/22 15:46:14;;;;;;;3.00;2.60;;;25.70;41.10;;;;;;222139;1260;22531;-42
2023/07/22 15:51:18;;;;;;;3.20;2.70;;;25.70;40.60;;;;;;222185;1269;24307;-43
2023/07/22 15:56:22;;;;;;;4.60;3.20;;;25.70;40.40;;;;;;222270;1269;22623;-42
2023/07/22 16:01:27;;;;;;;4.00;2.40;;;25.60;40.70;;;;;;222182;1263;24223;-43
2023/07/22 16:06:32;;;;;;;3.80;2.50;;;25.70;40.10;;;;;;222058;1268;24477;-43
2023/07/22 16:11:36;;;;;;;2.40;2.30;;;25.60;40.10;;;;;;222019;1269;22608;-43
2023/07/22 16:16:41;;;;;;;3.00;2.70;;;25.70;40.10;;;;;;221963;1264;22514;-43
2023/07/22 16:21:45;;;;;;;3.30;2.50;;;25.60;40.30;;;;;;221833;1269;23922;-43
2023/07/22 16:26:50;;;;;;;2.70;2.50;;;25.60;40.40;;;;;;221768;1254;22518;-43
2023/07/22 16:31:54;;;;;;;3.60;2.20;;;25.60;40.20;;;;;;222099;1257;22516;-42
2023/07/22 16:36:58;;;;;;;5.00;2.50;;;25.60;40.10;;;;;;222089;1269;22511;-42
2023/07/22 16:42:03;;;;;;;2.60;2.40;;;25.60;40.10;;;;;;221734;1269;24231;-41
2023/07/22 16:47:07;;;;;;;3.70;2.30;;;25.60;40.70;;;;;;222135;1264;25252;-43
2023/07/22 16:52:11;;;;;;;2.60;2.40;;;25.60;40.10;;;;;;221809;1253;24232;-43
2023/07/22 16:57:16;;;;;;;3.30;3.00;;;25.60;40.20;;;;;;222040;1259;24184;-42
2023/07/22 17:02:20;;;;;;;2.70;2.50;;;25.50;40.10;;;;;;222167;1269;22527;-43
2023/07/22 17:07:25;;;;;;;2.30;2.20;;;25.60;40.50;;;;;;221995;1254;22845;-42
2023/07/22 17:12:29;;;;;;;3.60;2.20;;;25.50;40.20;;;;;;222230;1254;24534;-45
2023/07/22 17:17:33;;;;;;;3.10;2.80;;;25.50;40.10;;;;;;221946;1269;22640;-40
2023/07/22 17:22:38;;;;;;;4.70;2.40;;;25.50;40.30;;;;;;222268;1254;22521;-42
2023/07/22 17:27:42;;;;;;;2.20;1.90;;;25.50;40.10;;;;;;222175;1269;22515;-42
2023/07/22 17:32:48;;;;;;;2.70;2.40;;;25.60;40.30;;;;;;222028;1264;24238;-43
2023/07/22 17:37:53;;;;;;;2.60;2.40;;;25.60;40.40;;;;;;222310;1254;25399;-41
2023/07/22 17:42:58;;;;;;;2.90;2.40;;;25.50;40.30;;;;;;222156;1266;22614;-43
2023/07/22 17:48:03;;;;;;;2.90;2.70;;;25.50;40.50;;;;;;221998;1269;24183;-42
2023/07/22 17:53:08;;;;;;;3.00;2.70;;;25.50;40.50;;;;;;222174;1263;24177;-42
2023/07/22 17:58:13;;;;;;;2.50;2.30;;;25.50;40.60;;;;;;222236;1267;26499;-43
2023/07/22 18:03:17;;;;;;;3.00;2.80;;;25.50;40.70;;;;;;222148;1269;22776;-42
2023/07/22 18:08:22;;;;;;;3.70;2.70;;;25.50;40.90;;;;;;222375;1254;22583;-42
2023/07/22 18:13:29;;;;;;;8.20;2.50;;;25.50;41.50;;;;;;221823;1269;25493;-40
2023/07/22 18:18:33;;;;;;;3.80;2.20;;;25.50;41.40;;;;;;222130;1267;22528;-43
2023/07/22 18:23:38;;;;;;;3.30;3.00;;;25.50;41.30;;;;;;221913;1254;25372;-41
2023/07/22 18:28:42;;;;;;;3.20;2.80;;;25.50;41.60;;;;;;222170;1257;22646;-43
2023/07/22 18:33:49;;;;;;;4.50;2.60;;;25.50;41.80;;;;;;222110;1258;24187;-42
2023/07/22 18:38:54;;;;;;;6.60;2.80;;;25.50;42.10;;;;;;222308;1269;22535;-42
2023/07/22 18:43:58;;;;;;;6.70;2.50;;;25.50;42.30;;;;;;222200;1263;22737;-43
2023/07/22 18:49:03;;;;;;;3.10;2.80;;;25.50;42.50;;;;;;222236;1267;22530;-40
2023/07/22 18:54:07;;;;;;;6.10;2.80;;;25.50;42.70;;;;;;221963;1259;22630;-42
2023/07/22 18:59:13;;;;;;;4.90;3.20;;;25.50;43.30;;;;;;221976;1263;22638;-43
2023/07/22 19:04:18;;;;;;;5.00;2.70;;;25.40;43.40;;;;;;222398;1254;22655;-42
2023/07/22 19:09:24;;;;;;;5.30;2.90;;;25.40;43.70;;;;;;222465;1263;26630;-43
2023/07/22 19:14:30;;;;;;;4.60;3.10;;;25.40;43.60;;;;;;222240;1260;24181;-40
2023/07/22 19:19:35;;;;;;;5.00;2.90;;;25.40;43.70;;;;;;222062;1263;22530;-43
2023/07/22 19:24:39;;;;;;;4.70;3.50;;;25.40;44.50;;;;;;222070;1269;22523;-42
2023/07/22 19:29:44;;;;;;;3.50;2.70;;;25.40;44.40;;;;;;222201;1269;22559;-42
2023/07/22 19:34:51;;;;;;;4.00;3.00;;;25.40;44.90;;;;;;222460;1254;22538;-43
2023/07/22 19:39:56;;;;;;;4.70;3.50;;;25.40;44.70;;;;;;222162;1254;22724;-43
2023/07/22 19:45:00;;;;;;;3.80;3.50;;;25.40;44.70;;;;;;222475;1267;25440;-44
2023/07/22 19:50:07;;;;;;;4.80;3.70;;;25.40;44.90;;;;;;222215;1269;22646;-43
2023/07/22 19:55:13;;;;;;;5.00;3.40;;;25.40;45.00;;;;;;222298;1263;22520;-42
2023/07/22 20:00:18;;;;;;;3.50;3.00;;;25.40;45.00;;;;;;222193;1259;24733;-40
2023/07/22 20:05:23;;;;;;;4.10;3.60;;;25.30;45.00;;;;;;222198;1264;23885;-41
2023/07/22 20:10:28;;;;;;;3.50;3.20;;;25.30;45.10;;;;;;222253;1269;24176;-42
2023/07/22 20:15:35;;;;;;;5.30;4.60;;;25.30;45.30;;;;;;222145;1268;24329;-40
2023/07/22 20:20:39;;;;;;;3.80;3.50;;;25.30;45.40;;;;;;222138;1265;22537;-41
2023/07/22 20:25:45;;;;;;;4.80;4.20;;;25.30;45.30;;;;;;221959;1260;22626;-43
2023/07/22 20:30:50;;;;;;;5.20;4.70;;;25.30;45.80;;;;;;221984;1263;22527;-42
2023/07/22 20:35:55;;;;;;;5.70;5.20;;;25.30;45.60;;;;;;222218;1259;24053;-43
2023/07/22 20:41:07;;;;;;;6.80;6.10;;;25.30;45.80;;;;;;222248;1264;22679;-45
2023/07/22 20:46:11;;;;;;;7.80;6.00;;;25.20;45.80;;;;;;222323;1269;22518;-42
2023/07/22 20:51:19;;;;;;;5.80;5.20;;;25.30;46.00;;;;;;222146;1269;25322;-42
2023/07/22 20:56:24;;;;;;;8.20;5.80;;;25.20;46.10;;;;;;222010;1264;22515;-43
2023/07/22 21:01:28;;;;;;;7.10;6.40;;;25.20;46.00;;;;;;222396;1268;25310;-42
2023/07/22 21:06:36;;;;;;;6.20;5.70;;;25.20;46.10;;;;;;222316;1263;25045;-42
2023/07/22 21:11:40;;;;;;;8.10;5.60;;;25.20;46.20;;;;;;222202;1262;22541;-42
2023/07/22 21:16:44;;;;;;;6.30;5.60;;;25.20;46.60;;;;;;222023;1253;24215;-42
2023/07/22 21:21:48;;;;;;;5.70;5.20;;;25.20;46.30;;;;;;222180;1264;22527;-42
2023/07/22 21:26:53;;;;;;;6.90;5.90;;;25.10;46.40;;;;;;222115;1269;26236;-42
2023/07/22 21:32:00;;;;;;;5.70;5.20;;;25.10;46.40;;;;;;221919;1269;22976;-42
2023/07/22 21:37:04;;;;;;;6.30;5.80;;;25.10;46.50;;;;;;222077;1254;25217;-41
2023/07/22 21:42:10;;;;;;;5.90;5.30;;;25.10;46.60;;;;;;222094;1266;22518;-43
2023/07/22 21:47:14;;;;;;;6.10;5.50;;;25.10;46.70;;;;;;222135;1263;22518;-42
2023/07/22 21:52:19;;;;;;;5.50;5.00;;;25.10;46.80;;;;;;222220;1263;24334;-43
2023/07/22 21:57:23;;;;;;;5.20;4.80;;;25.10;46.90;;;;;;222202;1263;25152;-43
2023/07/22 22:02:27;;;;;;;5.50;5.00;;;25.10;46.90;;;;;;222423;1263;22518;-46
2023/07/22 22:07:32;;;;;;;5.10;4.70;;;25.10;46.90;;;;;;222333;1248;24253;-43
2023/07/22 22:12:37;;;;;;;5.30;4.80;;;25.10;47.00;;;;;;222258;1269;22516;-41
2023/07/22 22:17:41;;;;;;;6.10;5.00;;;25.00;47.00;;;;;;222367;1263;26545;-41
2023/07/22 22:23:03;;;;;;;5.80;5.30;;;25.00;47.00;;;;;;222110;1255;22510;-45
2023/07/22 22:28:07;;;;;;;5.00;4.50;;;25.00;47.30;;;;;;222677;1263;22636;-43
2023/07/22 22:33:12;;;;;;;6.60;5.20;;;25.10;47.30;;;;;;222173;1266;22517;-40
2023/07/22 22:38:16;;;;;;;6.10;5.00;;;25.00;47.10;;;;;;222451;1266;22870;-43
2023/07/22 22:43:20;;;;;;;5.70;5.10;;;25.00;47.40;;;;;;222278;1269;24173;-67
2023/07/22 22:48:25;;;;;;;5.50;5.00;;;25.00;47.10;;;;;;222270;1247;23880;-43
2023/07/22 22:53:29;;;;;;;5.30;4.80;;;25.00;47.00;;;;;;222044;1263;22647;-42
2023/07/22 22:58:33;;;;;;;7.00;5.30;;;25.00;47.50;;;;;;221818;1266;22516;-41
2023/07/22 23:03:37;;;;;;;5.80;5.30;;;24.90;47.20;;;;;;222010;1269;24163;-43
2023/07/22 23:08:42;;;;;;;5.80;5.30;;;24.90;47.10;;;;;;221872;1270;22514;-45
2023/07/22 23:13:48;;;;;;;6.30;5.70;;;24.90;47.10;;;;;;221984;1256;22520;-42
2023/07/22 23:18:52;;;;;;;5.90;5.40;;;24.90;47.30;;;;;;221835;1270;25237;-41
2023/07/22 23:23:58;;;;;;;6.60;6.00;;;24.90;47.30;;;;;;221896;1264;23882;-41
2023/07/22 23:29:03;;;;;;;6.30;5.80;;;24.80;47.20;;;;;;221913;1266;22514;-42
2023/07/22 23:34:07;;;;;;;6.20;5.60;;;24.80;47.20;;;;;;221774;1270;22629;-42
2023/07/22 23:39:11;;;;;;;6.40;5.80;;;24.80;47.60;;;;;;221712;1256;22507;-41
2023/07/22 23:44:17;;;;;;;7.10;6.10;;;24.80;47.30;;;;;;222158;1270;22640;-41
2023/07/22 23:49:23;;;;;;;6.40;5.70;;;24.80;47.70;;;;;;221860;1262;25322;-42
2023/07/22 23:54:28;;;;;;;6.20;5.60;;;24.70;47.50;;;;;;221753;1270;25156;-42
2023/07/22 23:59:33;;;;;;;7.00;6.30;;;24.70;47.50;;;;;;222035;1269;24371;-42
